Time;durP1;ratioP1;P1;durP2;ratioP2;P2;SDS_P1;SDS_P2;PMS_P1;PMS_P2;Temp;Humidity;BMP_temperature;BMP_pressure;BME280_temperature;BME280_humidity;BME280_pressure;Samples;Min_cycle;Max_cycle;Signal;HPM_P1;HPM_P2
2022/05/28 00:01:08;;;;;;;7.50;6.78;;;;;;;;;;5018141;28;20147;-69
2022/05/28 00:03:35;;;;;;;8.00;6.75;;;;;;;;;;5021703;28;20034;-69
2022/05/28 00:06:00;;;;;;;9.10;6.95;;;;;;;;;;5024654;28;20342;-69
2022/05/28 00:08:27;;;;;;;9.60;6.57;;;;;;;;;;5018033;28;20637;-69
2022/05/28 00:10:57;;;;;;;8.30;6.93;;;;;;;;;;5018718;28;20029;-69
2022/05/28 00:13:23;;;;;;;;;;;;;;;;;;5025267;28;20484;-69
2022/05/28 00:15:49;;;;;;;;;;;;;;;;;;5019235;28;19923;-69
2022/05/28 00:18:15;;;;;;;;;;;;;;;;;;5020574;28;20423;-68
2022/05/28 00:20:40;;;;;;;;;;;;;;;;;;5020777;28;19913;-69
2022/05/28 00:23:06;;;;;;;;;;;;;;;;;;5018903;28;19956;-70
2022/05/28 00:25:31;;;;;;;;;;;;;;;;;;5019412;28;20024;-70
2022/05/28 00:27:57;;;;;;;;;;;;;;;;;;5021326;28;19921;-70
2022/05/28 00:30:22;;;;;;;;;;;;;;;;;;5020015;28;19913;-70
2022/05/28 00:32:48;;;;;;;;;;;;;;;;;;5021716;28;19925;-70
2022/05/28 00:35:15;;;;;;;;;;;;;;;;;;5017260;28;19974;-70
2022/05/28 00:37:41;;;;;;;;;;;;;;;;;;5020613;28;20295;-69
2022/05/28 00:40:09;;;;;;;;;;;;;;;;;;5020141;28;19913;-69
2022/05/28 00:42:35;;;;;;;;;;;;;;;;;;5022430;28;19921;-69
2022/05/28 00:45:00;;;;;;;;;;;;;;;;;;5024313;28;19924;-69
2022/05/28 00:47:26;;;;;;;;;;;;;;;;;;5023014;28;20323;-69
2022/05/28 00:49:52;;;;;;;;;;;;;;;;;;5023419;28;20636;-68
2022/05/28 00:52:20;;;;;;;;;;;;;;;;;;5021613;28;19966;-68
2022/05/28 00:54:47;;;;;;;;;;;;;;;;;;5019615;28;19920;-68
2022/05/28 00:57:14;;;;;;;;;;;;;;;;;;5020442;28;19952;-68
2022/05/28 00:59:40;;;;;;;;;;;;;;;;;;5020629;28;19917;-66
2022/05/28 01:02:21;;;;;;;;;;;;;;;;;;5019699;28;19921;-68
2022/05/28 01:04:56;;;;;;;;;;;;;;;;;;5020177;28;19953;-68
2022/05/28 01:07:25;;;;;;;;;;;;;;;;;;5012136;28;19955;-69
2022/05/28 01:10:06;;;;;;;;;;;;;;;;;;5022854;28;20442;-69
2022/05/28 01:12:31;;;;;;;;;;;;;;;;;;5021480;28;20316;-69
2022/05/28 01:15:16;;;;;;;;;;;;;;;;;;5021045;28;19913;-69
2022/05/28 01:17:45;;;;;;;;;;;;;;;;;;5019217;28;19944;-69
2022/05/28 01:20:11;;;;;;;;;;;;;;;;;;5022719;28;19924;-69
2022/05/28 01:22:55;;;;;;;;;;;;;;;;;;5020768;28;19935;-67
2022/05/28 01:25:40;;;;;;;;;;;;;;;;;;5037022;28;20380;-68
2022/05/28 01:28:08;;;;;;;;;;;;;;;;;;5025420;28;20418;-68
2022/05/28 01:30:33;;;;;;;;;;;;;;;;;;5020635;28;19925;-68
2022/05/28 01:33:01;;;;;;;;;;;;;;;;;;5022648;28;20578;-67
2022/05/28 01:35:27;;;;;;;;;;;;;;;;;;5023881;28;20048;-68
2022/05/28 01:37:53;;;;;;;;;;;;;;;;;;5024846;28;20437;-68
2022/05/28 01:40:20;;;;;;;;;;;;;;;;;;5016560;28;19920;-67
2022/05/28 01:42:49;;;;;;;;;;;;;;;;;;5020340;28;19920;-67
2022/05/28 01:45:15;;;;;;;;;;;;;;;;;;5021705;28;19952;-69
2022/05/28 01:47:43;;;;;;;;;;;;;;;;;;5018216;28;19928;-69
2022/05/28 01:50:10;;;;;;;;;;;;;;;;;;5019828;28;20381;-69
2022/05/28 01:52:35;;;;;;;;;;;;;;;;;;5022706;28;19944;-69
2022/05/28 01:55:02;;;;;;;;;;;;;;;;;;5020512;28;19987;-69
2022/05/28 01:57:27;;;;;;;;;;;;;;;;;;5016357;28;20030;-69
2022/05/28 01:59:53;;;;;;;;;;;;;;;;;;5022015;28;20391;-69
2022/05/28 02:02:18;;;;;;;;;;;;;;;;;;5021162;28;19913;-69
2022/05/28 02:04:45;;;;;;;;;;;;;;;;;;5025297;28;19924;-70
2022/05/28 02:07:10;;;;;;;;;;;;;;;;;;5018939;28;19999;-69
2022/05/28 02:09:36;;;;;;;;;;;;;;;;;;5025063;28;20071;-68
2022/05/28 02:12:09;;;;;;;;;;;;;;;;;;5023976;28;20811;-69
2022/05/28 02:14:53;;;;;;;;;;;;;;;;;;5025138;28;19919;-69
2022/05/28 02:17:37;;;;;;;;;;;;;;;;;;5017807;28;19924;-70
2022/05/28 02:20:02;;;;;;;;;;;;;;;;;;5022313;28;19975;-68
2022/05/28 02:22:34;;;;;;;;;;;;;;;;;;5028226;28;19913;-69
2022/05/28 02:25:04;;;;;;;;;;;;;;;;;;5020455;28;19921;-69
2022/05/28 02:27:30;;;;;;;;;;;;;;;;;;5019956;28;20016;-68
2022/05/28 02:29:58;;;;;;;;;;;;;;;;;;5022949;28;19913;-70
2022/05/28 02:32:24;;;;;;;;;;;;;;;;;;5029636;28;19913;-70
2022/05/28 02:34:50;;;;;;;;;;;;;;;;;;5021867;28;20031;-69
2022/05/28 02:37:19;;;;;;;;;;;;;;;;;;5017798;28;20826;-70
2022/05/28 02:39:44;;;;;;;;;;;;;;;;;;5023430;28;19913;-71
2022/05/28 02:42:10;;;;;;;;;;;;;;;;;;5023726;28;19927;-70
2022/05/28 02:44:36;;;;;;;;;;;;;;;;;;5026268;28;19918;-69
2022/05/28 02:47:02;;;;;;;;;;;;;;;;;;5026203;28;19924;-68
2022/05/28 02:49:28;;;;;;;;;;;;;;;;;;5024543;28;19939;-71
2022/05/28 02:51:53;;;;;;;;;;;;;;;;;;5025848;28;19916;-70
2022/05/28 02:54:19;;;;;;;;;;;;;;;;;;5023432;28;19917;-68
2022/05/28 02:56:45;;;;;;;;;;;;;;;;;;5024809;28;19920;-70
2022/05/28 02:59:11;;;;;;;;;;;;;;;;;;5032160;28;19917;-70
2022/05/28 03:01:36;;;;;;;;;;;;;;;;;;5021922;28;19975;-70
2022/05/28 03:04:03;;;;;;;;;;;;;;;;;;5024342;28;20395;-68
2022/05/28 03:06:29;;;;;;;;;;;;;;;;;;5023190;28;19948;-69
2022/05/28 03:08:55;;;;;;;;;;;;;;;;;;5026119;28;20615;-69
2022/05/28 03:11:20;;;;;;;;;;;;;;;;;;5025193;28;20011;-69
2022/05/28 03:13:46;;;;;;;;;;;;;;;;;;5022955;28;19932;-66
2022/05/28 03:16:12;;;;;;;;;;;;;;;;;;5025157;28;19913;-68
2022/05/28 03:18:38;;;;;;;;;;;;;;;;;;5022712;28;20395;-68
2022/05/28 03:21:04;;;;;;;;;;;;;;;;;;5025436;28;19925;-68
2022/05/28 03:23:29;;;;;;;;;;;;;;;;;;5021740;28;19916;-68
2022/05/28 03:25:55;;;;;;;;;;;;;;;;;;5027131;28;19948;-68
2022/05/28 03:28:21;;;;;;;;;;;;;;;;;;5023682;28;19917;-69
2022/05/28 03:30:46;;;;;;;;;;;;;;;;;;5022956;28;19956;-68
2022/05/28 03:33:12;;;;;;;;;;;;;;;;;;5023456;28;19913;-68
2022/05/28 03:35:37;;;;;;;;;;;;;;;;;;5020857;28;19947;-69
2022/05/28 03:38:07;;;;;;;;;;;;;;;;;;5022644;28;19921;-67
2022/05/28 03:40:32;;;;;;;;;;;;;;;;;;5025153;28;19940;-69
2022/05/28 03:42:58;;;;;;;;;;;;;;;;;;5022708;28;19913;-70
2022/05/28 03:45:24;;;;;;;;;;;;;;;;;;5021045;28;19925;-68
2022/05/28 03:47:50;;;;;;;;;;;;;;;;;;5024381;28;19924;-67
2022/05/28 03:50:15;;;;;;;;;;;;;;;;;;5022671;28;19913;-67
2022/05/28 03:52:41;;;;;;;;;;;;;;;;;;5065194;23;19967;-74
2022/05/28 03:55:07;;;;;;;;;;;;;;;;;;5055776;28;20622;-76
2022/05/28 03:57:33;;;;;;;;;;;;;;;;;;5067994;28;19916;-76
2022/05/28 03:59:58;;;;;;;;;;;;;;;;;;5050339;28;19916;-77
2022/05/28 04:02:24;;;;;;;;;;;;;;;;;;5043877;28;19924;-77
2022/05/28 04:04:50;;;;;;;;;;;;;;;;;;5040763;28;20499;-76
2022/05/28 04:07:16;;;;;;;;;;;;;;;;;;5056095;28;19913;-76
2022/05/28 04:09:42;;;;;;;;;;;;;;;;;;5048445;28;20307;-78
2022/05/28 04:12:08;;;;;;;;;;;;;;;;;;5036872;28;19917;-75
2022/05/28 04:14:33;;;;;;;;;;;;;;;;;;5053805;28;19932;-75
2022/05/28 04:16:59;;;;;;;;;;;;;;;;;;5041650;28;19920;-74
2022/05/28 04:19:24;;;;;;;;;;;;;;;;;;5049803;28;19991;-76
2022/05/28 04:21:50;;;;;;;;;;;;;;;;;;5052137;28;20307;-76
2022/05/28 04:24:15;;;;;;;;;;;;;;;;;;5044641;28;20288;-74
2022/05/28 04:26:41;;;;;;;;;;;;;;;;;;5039836;28;20492;-79
2022/05/28 04:29:07;;;;;;;;;;;;;;;;;;5043885;28;20326;-80
2022/05/28 04:31:32;;;;;;;;;;;;;;;;;;5043606;28;20269;-76
2022/05/28 04:33:58;;;;;;;;;;;;;;;;;;5039076;28;20296;-77
2022/05/28 04:36:24;;;;;;;;;;;;;;;;;;5049878;28;19912;-76
2022/05/28 04:38:49;;;;;;;;;;;;;;;;;;5043639;28;19917;-78
2022/05/28 04:41:15;;;;;;;;;;;;;;;;;;5042455;28;20363;-79
2022/05/28 04:43:40;;;;;;;;;;;;;;;;;;5045426;28;20532;-78
2022/05/28 04:46:06;;;;;;;;;;;;;;;;;;5042717;28;19913;-79
2022/05/28 04:48:32;;;;;;;;;;;;;;;;;;5039996;28;19921;-76
2022/05/28 04:50:57;;;;;;;;;;;;;;;;;;5025908;28;19916;-76
2022/05/28 04:53:23;;;;;;;;;;;;;;;;;;5032528;28;19954;-77
2022/05/28 04:55:48;;;;;;;;;;;;;;;;;;5040611;28;20300;-76
2022/05/28 04:58:14;;;;;;;;;;;;;;;;;;5037891;28;19999;-77
2022/05/28 05:00:40;;;;;;;;;;;;;;;;;;5048544;28;19920;-77
2022/05/28 05:03:06;;;;;;;;;;;;;;;;;;5060671;28;19912;-75
2022/05/28 05:05:32;;;;;;;;;;;;;;;;;;5064013;28;19916;-77
2022/05/28 05:07:58;;;;;;;;;;;;;;;;;;5044582;28;19931;-76
2022/05/28 05:10:23;;;;;;;;;;;;;;;;;;5020905;28;19999;-77
2022/05/28 05:12:49;;;;;;;;;;;;;;;;;;5060495;28;19962;-78
2022/05/28 05:15:15;;;;;;;;;;;;;;;;;;5044081;28;19923;-78
2022/05/28 05:17:40;;;;;;;;;;;;;;;;;;5035714;28;20012;-77
2022/05/28 05:20:06;;;;;;;;;;;;;;;;;;5052969;28;19917;-75
2022/05/28 05:22:32;;;;;;;;;;;;;;;;;;5058085;28;19920;-76
2022/05/28 05:24:58;;;;;;;;;;;;;;;;;;5027110;28;19919;-79
2022/05/28 05:27:23;;;;;;;;;;;;;;;;;;5035907;28;19913;-75
2022/05/28 05:29:49;;;;;;;;;;;;;;;;;;5041470;28;19913;-77
2022/05/28 05:32:14;;;;;;;;;;;;;;;;;;5037845;28;20319;-76
2022/05/28 05:34:42;;;;;;;;;;;;;;;;;;5037210;28;19917;-77
2022/05/28 05:37:07;;;;;;;;;;;;;;;;;;5042341;28;19913;-77
2022/05/28 05:39:33;;;;;;;;;;;;;;;;;;5048905;28;19988;-75
2022/05/28 05:41:59;;;;;;;;;;;;;;;;;;5047283;28;19955;-76
2022/05/28 05:44:24;;;;;;;;;;;;;;;;;;5030884;28;20303;-77
2022/05/28 05:46:50;;;;;;;;;;;;;;;;;;5035459;28;19967;-78
2022/05/28 05:49:15;;;;;;;;;;;;;;;;;;5035414;28;19913;-75
2022/05/28 05:51:42;;;;;;;;;;;;;;;;;;5066602;28;19916;-77
2022/05/28 05:54:08;;;;;;;;;;;;;;;;;;5028261;28;19923;-77
2022/05/28 05:56:34;;;;;;;;;;;;;;;;;;5036975;28;19948;-77
2022/05/28 05:58:59;;;;;;;;;;;;;;;;;;5059363;28;19912;-78
2022/05/28 06:01:26;;;;;;;;;;;;;;;;;;5059020;28;20045;-78
2022/05/28 06:03:52;;;;;;;;;;;;;;;;;;5055808;28;19916;-77
2022/05/28 06:06:18;;;;;;;;;;;;;;;;;;5038163;28;19919;-77
2022/05/28 06:08:44;;;;;;;;;;;;;;;;;;5047212;28;19913;-77
2022/05/28 06:11:10;;;;;;;;;;;;;;;;;;5038705;28;19917;-77
2022/05/28 06:13:36;;;;;;;;;;;;;;;;;;5047013;28;19999;-77
2022/05/28 06:16:02;;;;;;;;;;;;;;;;;;5063626;28;19927;-77
2022/05/28 06:18:28;;;;;;;;;;;;;;;;;;5058399;28;19912;-78
2022/05/28 06:20:54;;;;;;;;;;;;;;;;;;5050913;28;20280;-77
2022/05/28 06:23:20;;;;;;;;;;;;;;;;;;5045486;28;19916;-78
2022/05/28 06:25:45;;;;;;;;;;;;;;;;;;5048263;28;19955;-78
2022/05/28 06:28:11;;;;;;;;;;;;;;;;;;5054343;28;20368;-77
2022/05/28 06:30:36;;;;;;;;;;;;;;;;;;5033068;28;19956;-76
2022/05/28 06:33:02;;;;;;;;;;;;;;;;;;5047709;28;20401;-79
2022/05/28 06:35:31;;;;;;;;;;;;;;;;;;5030286;28;19917;-79
2022/05/28 06:37:56;;;;;;;;;;;;;;;;;;5044582;28;20118;-78
2022/05/28 06:40:22;;;;;;;;;;;;;;;;;;5047975;28;20490;-78
2022/05/28 06:42:49;;;;;;;;;;;;;;;;;;5052757;28;19932;-76
2022/05/28 06:45:15;;;;;;;;;;;;;;;;;;5041245;28;20307;-77
2022/05/28 06:47:42;;;;;;;;;;;;;;;;;;5046462;28;19916;-77
2022/05/28 06:52:52;;;;;;;;;;;;;;;;;;5044962;28;20569;-77
2022/05/28 06:55:47;;;;;;;;;;;;;;;;;;5030778;28;19917;-77
2022/05/28 06:58:13;;;;;;;;;;;;;;;;;;5050062;28;19919;-77
2022/05/28 07:00:39;;;;;;;;;;;;;;;;;;5051109;28;19912;-77
2022/05/28 07:03:05;;;;;;;;;;;;;;;;;;5046430;28;19951;-77
2022/05/28 07:05:31;;;;;;;;;;;;;;;;;;5042840;28;20412;-77
2022/05/28 07:07:57;;;;;;;;;;;;;;;;;;5038750;28;19959;-77
2022/05/28 07:10:22;;;;;;;;;;;;;;;;;;5059028;28;19924;-76
2022/05/28 07:12:48;;;;;;;;;;;;;;;;;;5061841;28;19912;-77
2022/05/28 07:15:14;;;;;;;;;;;;;;;;;;5051194;28;19939;-77
2022/05/28 07:17:42;;;;;;;;;;;;;;;;;;5050617;28;20520;-77
2022/05/28 07:20:08;;;;;;;;;;;;;;;;;;5054308;28;19916;-78
2022/05/28 07:22:34;;;;;;;;;;;;;;;;;;5059641;28;19919;-77
2022/05/28 07:24:59;;;;;;;;;;;;;;;;;;5037083;28;19916;-77
2022/05/28 07:27:25;;;;;;;;;;;;;;;;;;5039177;28;19937;-76
2022/05/28 07:29:54;;;;;;;;;;;;;;;;;;5060218;28;19958;-77
2022/05/28 07:32:19;;;;;;;;;;;;;;;;;;5053808;28;19959;-75
2022/05/28 07:34:45;;;;;;;;;;;;;;;;;;5044016;28;20543;-75
2022/05/28 07:37:10;;;;;;;;;;;;;;;;;;5042920;28;20007;-75
2022/05/28 07:39:36;;;;;;;;;;;;;;;;;;5061140;28;19916;-74
2022/05/28 07:42:02;;;;;;;;;;;;;;;;;;5041852;28;19978;-77
2022/05/28 07:44:28;;;;;;;;;;;;;;;;;;5040488;28;19924;-74
2022/05/28 07:46:54;;;;;;;;;;;;;;;;;;5046469;28;19916;-75
2022/05/28 07:49:19;;;;;;;;;;;;;;;;;;5064310;28;19912;-75
2022/05/28 07:51:44;;;;;;;;;;;;;;;;;;5045166;28;20035;-75
2022/05/28 07:54:10;;;;;;;;;;;;;;;;;;5038619;28;19917;-75
2022/05/28 07:56:35;;;;;;;;;;;;;;;;;;5047096;28;20391;-75
2022/05/28 07:59:01;;;;;;;;;;;;;;;;;;5057720;28;20166;-76
2022/05/28 08:01:28;;;;;;;;;;;;;;;;;;5042355;28;19921;-75
2022/05/28 08:03:53;;;;;;;;;;;;;;;;;;5045082;28;19932;-76
2022/05/28 08:06:19;;;;;;;;;;;;;;;;;;5052849;28;19912;-75
2022/05/28 08:08:45;;;;;;;;;;;;;;;;;;5056550;28;19973;-75
2022/05/28 08:11:11;;;;;;;;;;;;;;;;;;5043381;28;20510;-75
2022/05/28 08:13:36;;;;;;;;;;;;;;;;;;5040771;28;19912;-75
2022/05/28 08:16:02;;;;;;;;;;;;;;;;;;5061831;28;19920;-76
2022/05/28 08:18:28;;;;;;;;;;;;;;;;;;5059815;28;20284;-76
2022/05/28 08:23:42;;;;;;;;;;;;;;;;;;5043523;28;19913;-75
2022/05/28 08:26:08;;;;;;;;;;;;;;;;;;5034771;28;19918;-76
2022/05/28 08:28:34;;;;;;;;;;;;;;;;;;5040638;28;19920;-75
2022/05/28 08:31:00;;;;;;;;;;;;;;;;;;5047933;28;19931;-75
2022/05/28 08:33:26;;;;;;;;;;;;;;;;;;5058534;28;19912;-75
2022/05/28 08:35:51;;;;;;;;;;;;;;;;;;5048435;28;19924;-76
2022/05/28 08:38:19;;;;;;;;;;;;;;;;;;5047264;28;19974;-75
2022/05/28 08:40:47;;;;;;;;;;;;;;;;;;5052700;28;19912;-75
2022/05/28 08:43:32;;;;;;;;;;;;;;;;;;5048876;28;19919;-75
2022/05/28 08:45:57;;;;;;;;;;;;;;;;;;5040714;28;20000;-76
2022/05/28 08:48:27;;;;;;;;;;;;;;;;;;5047340;28;20011;-75
2022/05/28 08:51:00;;;;;;;;;;;;;;;;;;5061223;28;19943;-75
2022/05/28 08:53:28;;;;;;;;;;;;;;;;;;5040257;28;19913;-75
2022/05/28 08:55:53;;;;;;;;;;;;;;;;;;5037615;28;20007;-75
2022/05/28 08:58:26;;;;;;;;;;;;;;;;;;5061039;28;19951;-75
2022/05/28 09:01:05;;;;;;;;;;;;;;;;;;5060210;28;19920;-75
2022/05/28 09:03:51;;;;;;;;;;;;;;;;;;5045394;28;19913;-75
2022/05/28 09:06:20;;;;;;;;;;;;;;;;;;5038776;28;19939;-75
2022/05/28 09:08:50;;;;;;;;;;;;;;;;;;5054525;28;19917;-76
2022/05/28 09:11:18;;;;;;;;;;;;;;;;;;5051846;28;19917;-76
2022/05/28 09:13:53;;;;;;;;;;;;;;;;;;5042452;28;19962;-76
2022/05/28 09:16:28;;;;;;;;;;;;;;;;;;5048345;28;19923;-76
2022/05/28 09:18:57;;;;;;;;;;;;;;;;;;5059025;28;19975;-76
2022/05/28 09:21:23;;;;;;;;;;;;;;;;;;5042842;28;19917;-76
2022/05/28 09:23:57;;;;;;;;;;;;;;;;;;5041510;28;19920;-75
2022/05/28 09:26:29;;;;;;;;;;;;;;;;;;5044987;28;19920;-75
2022/05/28 09:29:02;;;;;;;;;;;;;;;;;;5044806;28;20011;-75
2022/05/28 09:31:37;;;;;;;;;;;;;;;;;;5039623;28;19919;-75
2022/05/28 09:34:18;;;;;;;;;;;;;;;;;;5060041;28;20505;-75
2022/05/28 09:37:02;;;;;;;;;;;;;;;;;;5046550;28;20036;-75
2022/05/28 09:39:38;;;;;;;;;;;;;;;;;;5041293;28;19999;-75
2022/05/28 09:42:06;;;;;;;;;;;;;;;;;;5048415;28;19948;-75
2022/05/28 09:44:35;;;;;;;;;;;;;;;;;;5049753;28;19916;-75
2022/05/28 09:47:11;;;;;;;;;;;;;;;;;;5047428;28;20493;-75
2022/05/28 09:49:50;;;;;;;;;;;;;;;;;;5037000;28;19917;-75
2022/05/28 09:52:24;;;;;;;;;;;;;;;;;;5052461;28;19912;-76
2022/05/28 09:54:49;;;;;;;;;;;;;;;;;;5045036;28;19917;-74
2022/05/28 09:57:25;;;;;;;;;;;;;;;;;;5044187;28;19912;-76
2022/05/28 09:59:56;;;;;;;;;;;;;;;;;;5035949;28;20289;-76
2022/05/28 10:05:50;;;;;;;;;;;;;;;;;;4984101;28;19920;-76
2022/05/28 10:08:16;;;;;;;;;;;;;;;;;;4991148;28;20008;-74
2022/05/28 10:10:41;;;;;;;;;;;;;;;;;;4987467;28;20008;-75
2022/05/28 10:13:20;;;;;;;;;;;;;;;;;;4986020;28;20324;-74
2022/05/28 10:15:52;;;;;;;;;;;;;;;;;;4998792;28;19924;-75
2022/05/28 10:18:21;;;;;;;;;;;;;;;;;;4996712;28;19973;-75
2022/05/28 10:20:59;;;;;;;;;;;;;;;;;;4987056;28;19921;-75
2022/05/28 10:23:24;;;;;;;;;;;;;;;;;;4992988;28;20011;-76
2022/05/28 10:25:50;;;;;;;;;;;;;;;;;;4984160;28;19952;-77
2022/05/28 10:28:33;;;;;;;;;;;;;;;;;;4985759;28;20446;-77
2022/05/28 10:30:59;;;;;;;;;;;;;;;;;;4986530;28;19917;-77
2022/05/28 10:33:26;;;;;;;;;;;;;;;;;;4985778;28;19919;-77
2022/05/28 10:35:53;;;;;;;;;;;;;;;;;;4976924;28;19917;-75
2022/05/28 10:38:23;;;;;;;;;;;;;;;;;;4987271;28;19945;-76
2022/05/28 10:40:50;;;;;;;;;;;;;;;;;;5007296;28;20268;-76
2022/05/28 10:43:33;;;;;;;;;;;;;;;;;;5056983;28;20330;-75
2022/05/28 10:46:14;;;;;;;;;;;;;;;;;;5042440;28;19923;-75
2022/05/28 10:48:58;;;;;;;;;;;;;;;;;;5051723;28;20441;-76
2022/05/28 10:51:42;;;;;;;;;;;;;;;;;;5049208;28;19920;-76
2022/05/28 10:54:19;;;;;;;;;;;;;;;;;;5038543;28;19951;-76
2022/05/28 10:57:01;;;;;;;;;;;;;;;;;;5042416;28;19924;-75
2022/05/28 10:59:49;;;;;;;;;;;;;;;;;;5043920;28;19913;-75
2022/05/28 11:02:30;;;;;;;;;;;;;;;;;;5037175;28;19963;-74
2022/05/28 11:04:58;;;;;;;;;;;;;;;;;;5045473;28;19939;-74
2022/05/28 11:07:26;;;;;;;;;;;;;;;;;;5049480;28;20020;-74
2022/05/28 11:10:32;;;;;;;;;;;;;;;;;;5045848;28;19920;-76
2022/05/28 11:13:16;;;;;;;;;;;;;;;;;;4981315;28;19918;-74
2022/05/28 11:15:48;;;;;;;;;;;;;;;;;;4982040;28;19957;-74
2022/05/28 11:18:31;;;;;;;;;;;;;;;;;;4981673;28;19924;-74
2022/05/28 11:20:56;;;;;;;;;;;;;;;;;;4985497;28;20300;-75
2022/05/28 11:23:32;;;;;;;;;;;;;;;;;;4981497;28;19921;-74
2022/05/28 11:26:01;;;;;;;;;;;;;;;;;;4983081;28;20021;-75
2022/05/28 11:28:29;;;;;;;;;;;;;;;;;;4978304;28;19924;-75
2022/05/28 11:30:57;;;;;;;;;;;;;;;;;;4985884;28;19948;-75
2022/05/28 11:33:25;;;;;;;;;;;;;;;;;;4980909;28;20353;-74
2022/05/28 11:36:00;;;;;;;;;;;;;;;;;;4980220;28;20262;-75
2022/05/28 11:39:03;;;;;;;;;;;;;;;;;;4988045;28;19975;-74
2022/05/28 11:41:55;;;;;;;;;;;;;;;;;;4925341;29;19918;-75
2022/05/28 11:44:28;;;;;;;;;;;;;;;;;;4973126;28;20385;-74
2022/05/28 11:46:58;;;;;;;;;;;;;;;;;;5011422;28;19956;-75
2022/05/28 11:52:34;;;;;;;;;;;;;;;;;;5004268;28;20147;-74
2022/05/28 11:55:02;;;;;;;;;;;;;;;;;;4999919;28;19926;-75
2022/05/28 11:57:29;;;;;;;;;;;;;;;;;;5007590;28;19917;-74
2022/05/28 11:59:56;;;;;;;;;;;;;;;;;;4994999;28;19913;-75
2022/05/28 12:02:24;;;;;;;;;;;;;;;;;;4997993;28;19975;-75
2022/05/28 12:04:50;;;;;;;;;;;;;;;;;;5005649;28;19913;-74
2022/05/28 12:07:29;;;;;;;;;;;;;;;;;;5006113;28;19917;-75
2022/05/28 12:09:55;;;;;;;;;;;;;;;;;;4999932;28;19917;-74
2022/05/28 12:12:23;;;;;;;;;;;;;;;;;;5035249;28;19969;-74
2022/05/28 12:15:00;;;;;;;;;;;;;;;;;;5064993;28;19916;-75
2022/05/28 12:17:27;;;;;;;;;;;;;;;;;;5040938;28;20007;-74
2022/05/28 12:19:55;;;;;;;;;;;;;;;;;;5048229;28;19933;-74
2022/05/28 12:22:23;;;;;;;;;;;;;;;;;;5048377;28;20033;-75
2022/05/28 12:25:06;;;;;;;;;;;;;;;;;;5048453;28;19947;-75
2022/05/28 12:28:01;;;;;;;;;;;;;;;;;;4995110;28;19917;-74
2022/05/28 12:30:30;;;;;;;;;;;;;;;;;;4999789;28;19913;-75
2022/05/28 12:32:57;;;;;;;;;;;;;;;;;;5012233;28;20008;-74
2022/05/28 12:35:22;;;;;;;;;;;;;;;;;;5003013;28;19957;-74
2022/05/28 12:37:52;;;;;;;;;;;;;;;;;;5005196;28;19964;-73
2022/05/28 12:40:54;;;;;;;;;;;;;;;;;;4994713;28;19925;-74
2022/05/28 12:43:20;;;;;;;;;;;;;;;;;;4925655;29;19981;-75
2022/05/28 12:45:47;;;;;;;;;;;;;;;;;;4927719;29;20024;-74
2022/05/28 12:48:14;;;;;;;;;;;;;;;;;;4928102;29;20005;-75
2022/05/28 12:50:42;;;;;;;;;;;;;;;;;;4935874;29;19946;-75
2022/05/28 12:53:11;;;;;;;;;;;;;;;;;;4909408;29;20768;-74
2022/05/28 12:55:38;;;;;;;;;;;;;;;;;;4926742;29;19923;-73
2022/05/28 12:58:04;;;;;;;;;;;;;;;;;;4937958;29;19918;-74
2022/05/28 13:00:50;;;;;;;;;;;;;;;;;;4937311;29;19919;-73
2022/05/28 13:03:16;;;;;;;;;;;;;;;;;;4922747;29;19926;-74
2022/05/28 13:05:46;;;;;;;;;;;;;;;;;;4978673;28;19914;-75
2022/05/28 13:08:31;;;;;;;;;;;;;;;;;;4985384;28;19925;-74
2022/05/28 13:10:58;;;;;;;;;;;;;;;;;;4986466;28;19975;-73
2022/05/28 13:13:30;;;;;;;;;;;;;;;;;;4986913;28;19924;-74
2022/05/28 13:15:58;;;;;;;;;;;;;;;;;;4999574;28;19922;-73
2022/05/28 13:18:35;;;;;;;;;;;;;;;;;;5046676;28;19921;-73
2022/05/28 13:21:00;;;;;;;;;;;;;;;;;;5032221;28;20343;-74
2022/05/28 13:23:47;;;;;;;;;;;;;;;;;;5036514;28;19971;-74
2022/05/28 13:26:15;;;;;;;;;;;;;;;;;;5052788;28;20230;-75
2022/05/28 13:29:04;;;;;;;;;;;;;;;;;;5051845;28;19913;-75
2022/05/28 13:31:31;;;;;;;;;;;;;;;;;;5033074;28;19935;-74
2022/05/28 13:33:56;;;;;;;;;;;;;;;;;;5048737;28;19912;-74
2022/05/28 13:36:22;;;;;;;;;;;;;;;;;;5045380;28;19923;-75
2022/05/28 13:38:49;;;;;;;;;;;;;;;;;;5044223;28;19913;-74
2022/05/28 13:41:19;;;;;;;;;;;;;;;;;;5050871;28;19912;-75
2022/05/28 13:44:05;;;;;;;;;;;;;;;;;;5045849;28;20299;-75
2022/05/28 13:46:32;;;;;;;;;;;;;;;;;;5066939;28;19942;-75
2022/05/28 13:48:59;;;;;;;;;;;;;;;;;;5036680;28;19913;-75
2022/05/28 13:51:26;;;;;;;;;;;;;;;;;;5038043;28;19949;-74
2022/05/28 13:53:54;;;;;;;;;;;;;;;;;;5035971;28;19912;-75
2022/05/28 13:56:25;;;;;;;;;;;;;;;;;;5033757;28;19952;-75
2022/05/28 13:58:51;;;;;;;;;;;;;;;;;;5041019;28;20004;-75
2022/05/28 14:01:24;;;;;;;;;;;;;;;;;;5043895;28;19995;-76
2022/05/28 14:03:50;;;;;;;;;;;;;;;;;;5042854;28;20283;-75
2022/05/28 14:06:27;;;;;;;;;;;;;;;;;;5037913;28;19913;-76
2022/05/28 14:09:02;;;;;;;;;;;;;;;;;;5039166;28;20591;-75
2022/05/28 14:11:46;;;;;;;;;;;;;;;;;;5042631;28;20367;-75
2022/05/28 14:14:15;;;;;;;;;;;;;;;;;;5037737;28;20732;-76
2022/05/28 14:16:44;;;;;;;;;;;;;;;;;;5037721;28;19921;-75
2022/05/28 14:19:25;;;;;;;;;;;;;;;;;;5041166;28;19913;-75
2022/05/28 14:21:55;;;;;;;;;;;;;;;;;;5042222;28;19913;-75
2022/05/28 14:24:26;;;;;;;;;;;;;;;;;;5044443;28;20518;-74
2022/05/28 14:26:53;;;;;;;;;;;;;;;;;;5043796;28;19920;-74
2022/05/28 14:29:20;;;;;;;;;;;;;;;;;;5047503;28;19964;-75
2022/05/28 14:31:46;;;;;;;;;;;;;;;;;;5042785;28;19913;-75
2022/05/28 14:34:14;;;;;;;;;;;;;;;;;;5052411;28;19933;-74
2022/05/28 14:36:48;;;;;;;;;;;;;;;;;;5049757;28;20023;-74
2022/05/28 14:39:15;;;;;;;;;;;;;;;;;;5037958;28;19939;-74
2022/05/28 14:42:01;;;;;;;;;;;;;;;;;;5046767;28;20011;-75
2022/05/28 14:44:27;;;;;;;;;;;;;;;;;;5058206;28;19916;-75
2022/05/28 14:46:53;;;;;;;;;;;;;;;;;;5044797;28;19921;-74
2022/05/28 14:49:21;;;;;;;;;;;;;;;;;;5042826;28;20007;-74
2022/05/28 14:51:47;;;;;;;;;;;;;;;;;;5051448;28;19986;-74
2022/05/28 14:54:20;;;;;;;;;;;;;;;;;;5040672;28;20784;-74
2022/05/28 14:56:46;;;;;;;;;;;;;;;;;;5044760;28;19916;-75
2022/05/28 14:59:19;;;;;;;;;;;;;;;;;;5050036;28;19932;-75
2022/05/28 15:01:45;;;;;;;;;;;;;;;;;;5049244;28;19917;-75
2022/05/28 15:04:15;;;;;;;;;;;;;;;;;;5049551;28;19920;-75
2022/05/28 15:06:58;;;;;;;;;;;;;;;;;;5042200;28;19916;-75
2022/05/28 15:09:26;;;;;;;;;;;;;;;;;;5048721;28;20007;-75
2022/05/28 15:12:05;;;;;;;;;;;;;;;;;;5048915;28;20069;-75
2022/05/28 15:14:31;;;;;;;;;;;;;;;;;;5043065;28;19932;-75
2022/05/28 15:16:57;;;;;;;;;;;;;;;;;;5044668;28;19916;-75
2022/05/28 15:19:23;;;;;;;;;;;;;;;;;;5042359;28;19917;-75
2022/05/28 15:21:49;;;;;;;;;;;;;;;;;;5041697;28;19921;-74
2022/05/28 15:24:15;;;;;;;;;;;;;;;;;;5038326;28;19924;-74
2022/05/28 15:26:41;;;;;;;;;;;;;;;;;;5046602;28;19916;-74
2022/05/28 15:29:07;;;;;;;;;;;;;;;;;;5049311;28;19917;-74
2022/05/28 15:31:34;;;;;;;;;;;;;;;;;;5041142;28;19916;-74
2022/05/28 15:34:00;;;;;;;;;;;;;;;;;;5046552;28;20015;-74
2022/05/28 15:39:09;;;;;;;;;;;;;;;;;;5043479;28;19966;-74
2022/05/28 15:41:36;;;;;;;;;;;;;;;;;;5042973;28;19925;-74
2022/05/28 15:44:04;;;;;;;;;;;;;;;;;;5041720;28;20454;-74
2022/05/28 15:46:30;;;;;;;;;;;;;;;;;;5041790;28;19966;-74
2022/05/28 15:48:55;;;;;;;;;;;;;;;;;;5038810;28;19917;-73
2022/05/28 15:51:20;;;;;;;;;;;;;;;;;;5048282;28;19974;-74
2022/05/28 15:53:46;;;;;;;;;;;;;;;;;;5045650;28;19923;-75
2022/05/28 15:56:12;;;;;;;;;;;;;;;;;;5041211;28;19956;-73
2022/05/28 15:58:38;;;;;;;;;;;;;;;;;;5039408;28;20430;-73
2022/05/28 16:01:06;;;;;;;;;;;;;;;;;;5043179;28;19917;-74
2022/05/28 16:03:31;;;;;;;;;;;;;;;;;;5045967;28;19913;-74
2022/05/28 16:05:57;;;;;;;;;;;;;;;;;;5046536;28;19998;-73
2022/05/28 16:10:55;;;;;;;;;;;;;;;;;;5046947;28;19924;-75
2022/05/28 16:13:21;;;;;;;;;;;;;;;;;;5043280;28;19917;-73
2022/05/28 16:15:50;;;;;;;;;;;;;;;;;;5047491;28;20588;-73
2022/05/28 16:18:16;;;;;;;;;;;;;;;;;;5048961;28;19913;-74
2022/05/28 16:20:42;;;;;;;;;;;;;;;;;;5041145;28;19998;-74
2022/05/28 16:23:07;;;;;;;;;;;;;;;;;;5041423;28;20048;-73
2022/05/28 16:25:33;;;;;;;;;;;;;;;;;;5048536;28;20000;-74
2022/05/28 16:27:59;;;;;;;;;;;;;;;;;;5034768;28;19974;-74
2022/05/28 16:30:25;;;;;;;;;;;;;;;;;;5040055;28;19917;-74
2022/05/28 16:32:50;;;;;;;;;;;;;;;;;;5057328;28;20582;-73
2022/05/28 16:35:19;;;;;;;;;;;;;;;;;;5038489;28;19917;-73
2022/05/28 16:37:44;;;;;;;;;;;;;;;;;;5043055;28;19916;-73
2022/05/28 16:40:10;;;;;;;;;;;;;;;;;;5048449;28;19966;-75
2022/05/28 16:42:36;;;;;;;;;;;;;;;;;;5044276;28;19913;-74
2022/05/28 16:45:01;;;;;;;;;;;;;;;;;;5042644;28;19920;-76
2022/05/28 16:47:27;;;;;;;;;;;;;;;;;;5043549;28;19917;-75
2022/05/28 16:49:52;;;;;;;;;;;;;;;;;;5058897;28;19924;-73
2022/05/28 16:52:18;;;;;;;;;;;;;;;;;;5049132;28;19913;-73
2022/05/28 16:54:43;;;;;;;;;;;;;;;;;;5035030;28;19982;-73
2022/05/28 16:57:09;;;;;;;;;;;;;;;;;;5043648;28;19917;-74
2022/05/28 16:59:35;;;;;;;;;;;;;;;;;;5043112;28;20019;-74
2022/05/28 17:02:00;;;;;;;;;;;;;;;;;;5040849;28;19948;-74
2022/05/28 17:04:26;;;;;;;;;;;;;;;;;;5036098;28;19917;-74
2022/05/28 17:06:51;;;;;;;;;;;;;;;;;;5043421;28;19916;-73
2022/05/28 17:09:16;;;;;;;;;;;;;;;;;;5042360;28;20368;-74
2022/05/28 17:11:42;;;;;;;;;;;;;;;;;;5042509;28;20573;-74